CYWYCYWJ

Guest
Details From CYWY - WRIGLEY
To CYWJ - Deline
Flight Number -
Tags generated
Created
Modified
Stats Distance 120 nm / 223 km
Max Altitude 0 ft / 0 m
Waypoints 3
Social Downloads 2
Likes 0
Share VATSIM

Download

Looking for another format? Having issues loading an existing format? Contact us
Advertisement - Login to hide

Notes

Basic altitude profile: - Ascent Rate: 2500ft/min - Ascent Speed: 250kts - Cruise Altitude: 35000ft - Cruise Speed: 420kts - Descent Rate: 1500ft/min - Descent Speed: 250kts Options: - Use NATs: yes - Use PACOTS: yes - Use low airways: yes - Use high airways: no

Route

CYWY WY CYWJ

ID Type Via Altitude Latitude Longitude Leg Dist Tot Dist Heading (true) Name
O CYWY APT - 0 ft / 0 m 63.20944˚ -123.43667˚ - 0 nm - WRIGLEY
WY NDB - 0 ft / 0 m 63.21269˚ -123.42958˚ 0 nm 0 nm 44° / 44° WRIGLEY NDB
O CYWJ APT - 0 ft / 0 m 65.21110˚ -123.43684˚ 120 nm 120 nm 360° / 360° Deline

Altitude Profile

Advertisement - Login to hide

CYWY

Details ICAO CYWY (YWY)
Name WRIGLEY
Region Canada
Timezone America/Yellowknife (UTC-7.0)
Stats Elevation 489 ft / 149 m (AMSL)
Location 63.209443° -123.436668°
Runways 1
Magnetic Variation 20.045° E

METAR

CYWY 131700Z VRB02KT 15SM FEW080 SCT250 M15/M17 A3025 RMK AC1CI2 SLP261

Decode

TAF

Not found

Departure Runways

ID Width Length Bearing (true) Bearing (mag) Surface Threshold Offset Overrun Length
10 100 ft / 30 m 3,490 ft / 1,064 m 131.40° 111.36° Gravel 500 ft / 152 m 0 ft / 0 m
28 100 ft / 30 m 3,490 ft / 1,064 m 311.41° 291.37° Gravel 0 ft / 0 m 0 ft / 0 m

CYWJ

Details ICAO CYWJ (YWJ)
Name Deline
Region Canada
Timezone America/Yellowknife (UTC-7.0)
Stats Elevation 695 ft / 212 m (AMSL)
Location 65.211101° -123.436843°
Runways 1
Magnetic Variation 20.530° E

METAR

CYWJ 131700Z 31003KT 30SM BKN072 M11/M12 A3019 RMK AC6 SLP246

Decode

TAF

TAF CYWJ 131510Z 1315/1324 33005KT P6SM BKN080 TEMPO 1315/1317 P6SM -SN FEW010 BKN060 FM131700 33005KT P6SM FEW010 SCT060 BECMG 1319/1321 09006KT RMK NXT FCST BY 131800Z

Decode

Destination Runways

ID Width Length Bearing (true) Bearing (mag) Surface Threshold Offset Overrun Length
10 164 ft / 50 m 4,375 ft / 1,333 m 100.16° 79.63° Dirt 0 ft / 0 m 0 ft / 0 m
28 164 ft / 50 m 4,375 ft / 1,333 m 280.18° 259.65° Dirt 0 ft / 0 m 0 ft / 0 m